Holt, FL

10:12 PM CST on December 27, 2014 (GMT -0600)
Whiting Field Naval Air Station (South) | Change Station
CLOSE
Current Station
Airport
Location: Milton,
Elevation: 177 ft
Nearby Weather Stations

Elev 177 ft 30.70 °N, 87.02 °W | Updated 16 minutes ago

Overcast
Overcast
59 °F
Feels Like 59 °F
N
4
Wind Variable Wind from ESE

Today
High -- | Low -- °F
--% Chance of Precip.
Yesterday
High -- | Low -- °F
Precip. -- in
6:43 AM 4:53 PM
Waxing Crescent, 43% visible
Pressure 30.12 in
Visibility 10.0 miles
Clouds Overcast 2000 ft
Dew Point 53 °F
Humidity 81%
Rainfall 0.45 in
Snow Depth Not available.
UV 0 out of 12
Pollen .50 out of 12
Air Quality Not available.
Flu Activity Not available.
METAR KNDZ 280356Z AUTO 11003KT 10SM OVC020 15/12 A3016 RMK AO2 SLP198 T01500117 $

More Conditions Fewer Conditions

Pressure 30.12 in
Visibility 10.0 miles
Clouds Overcast 2000 ft
Dew Point 53 °F
Humidity 81%
Rainfall 0.45 in
Snow Depth Not available.
UV 0 out of 12
Pollen .50 out of 12
Air Quality Not available.
Flu Activity Not available.
METAR KNDZ 280356Z AUTO 11003KT 10SM OVC020 15/12 A3016 RMK AO2 SLP198 T01500117 $

More Conditions Fewer Conditions

10-Day Weather Forecast

Almanac

Astronomy

Dec. 27, 2014 Rise Set
Actual Time
Civil Twilight
Nautical Twilight
Astronomical Twilight
Moon
Length of Visible Light
Length of Day
Tomorrow will be .
, % of the Moon is Illuminated

Today's Extremes

State Highs State Lows

Community

WunderPhotos

Upload Photos

1,781,187 photos uploaded!

WunderBlogs® & News

Nearby

Air Quality

  Air Quality AQ Index Pollutant
Not available.

Snow Depth

Station Depth Elevation

Earthquake Activity

City Distance Mag. Time & Date
Minimum magnitude displayed is 2.5.

Coastal Water Temperatures

Place Temperature

Nearby Weather Stations